Dati Storici Stazione MacerataMeteo
 
Dati Giornalieri Gennaio 18, 2019 UnitÓ:  Metrica    Inglese   Entrambe
« Precedente Giorno
Successivo Giorno »
Dati Giornalieri Dati Settimanali Dati Mensili Dati Annuali Personalizza
  Attuale: Massima: Minima: Media:
Temperatura: -11.9 °C -17.8 °C -12.6 °C -12.1 °C
Punto di Rugiada: -14.2 °C -17.8 °C -15.9 °C -15.1 °C
UmiditÓ: 76% Humidity% 59% 68%
Vento-VelocitÓ: 5.1km/h 0km/h 0km/h 24km/h
Vento-Raffica: 15.6km/h 0km/h - -
Vento-DirezioneSSE - - SO
Pressione: 34235.8 hPa 0 hPa 34188.4 hPa -
Precipitazioni: 20.32 mm      
Historical Graphs
 
 
Dati Riepilogativi per Gennaio 18, 2019
Ora Temperatura Punto di Rugiada Pressione Vento-Direzione Vento-VelocitÓ Vento-Raffica UmiditÓ IntensitÓ Pioggia Caduta (Oraria) Radiazione Solare Condizioni
-17.8 °C -17.8 °C 0 hPa Calm     Humidity% 0 mm SolarRadiationWatts/m^2 W/m2 Conditions
00:00 -11.9 °C -15.3 °C 34269.7 hPa SW 31.1 km/h 57 km/h 66% 0 mm 0.00 W/m2
00:08 -12 °C -15.4 °C 34269.7 hPa WSW 38.8 km/h 49.2 km/h 65% 0 mm 0.00 W/m2
00:18 -11.6 °C -15.9 °C 34269.7 hPa SW 25.9 km/h 59.5 km/h 59% 0 mm 0.00 W/m2
00:28 -11.7 °C -15.7 °C 34269.7 hPa SW 33.6 km/h 59.5 km/h 61% 0 mm 0.00 W/m2
00:30 -11.7 °C -15.7 °C 34256.2 hPa SW 38.8 km/h 59.5 km/h 61% 0 mm 0.00 W/m2
00:38 -11.8 °C -15.7 °C 34256.2 hPa SW 20.8 km/h 41.4 km/h 62% 0 mm 0.00 W/m2
00:48 -11.8 °C -15.7 °C 34256.2 hPa WSW 33.6 km/h 41.4 km/h 62% 0 mm 0.00 W/m2
00:58 -11.8 °C -15.6 °C 34246 hPa SW 12.9 km/h 41.4 km/h 63% 0 mm 0.00 W/m2
01:00 -11.8 °C -15.6 °C 34246 hPa SW 7.7 km/h 41.4 km/h 63% 0 mm 0.00 W/m2
01:08 -11.8 °C -15.4 °C 34246 hPa SW 38.8 km/h 49.2 km/h 64% 0 mm 0.00 W/m2
01:18 -11.9 °C -15.4 °C 34246 hPa WSW 38.8 km/h 49.2 km/h 65% 0 mm 0.00 W/m2
01:28 -11.9 °C -15.3 °C 34246 hPa SW 49.2 km/h 59.5 km/h 66% 0 mm 0.00 W/m2
01:30 -11.9 °C -15.3 °C 34246 hPa SW 33.6 km/h 59.5 km/h 66% 0 mm 0.00 W/m2
01:38 -11.8 °C -15.2 °C 34246 hPa SSW 23.3 km/h 51.8 km/h 66% 0 mm 0.00 W/m2
01:48 -11.8 °C -15.2 °C 34246 hPa WSW 23.3 km/h 57 km/h 66% 0 mm 0.00 W/m2
01:58 -11.8 °C -15.2 °C 34235.8 hPa WSW 31.1 km/h 57 km/h 66% 0 mm 0.00 W/m2
02:00 -11.8 °C -15.2 °C 34235.8 hPa SSW 28.5 km/h 57 km/h 66% 0 mm 0.00 W/m2
02:08 -11.8 °C -15.2 °C 34235.8 hPa SSW 18.2 km/h 41.4 km/h 66% 0 mm 0.00 W/m2
02:19 -11.8 °C -15.1 °C 34235.8 hPa SW 25.9 km/h 49.2 km/h 67% 0 mm 0.00 W/m2
02:29 -11.8 °C -15.1 °C 34222.3 hPa SW 44.1 km/h 54.4 km/h 67% 0 mm 0.00 W/m2
02:30 -11.8 °C -15.1 °C 34222.3 hPa SW 46.7 km/h 54.4 km/h 67% 0 mm 0.00 W/m2
02:39 -11.8 °C -15.1 °C 34222.3 hPa SW 44.1 km/h 62.1 km/h 67% 0 mm 0.00 W/m2
02:49 -12 °C -15.2 °C 34212.1 hPa WSW 31.1 km/h 62.1 km/h 68% 0 mm 0.00 W/m2
02:59 -12.1 °C -15.2 °C 34222.3 hPa SSW 10.3 km/h 62.1 km/h 68% 0 mm 0.00 W/m2
03:00 -12.1 °C -15.2 °C 34222.3 hPa SW 5.1 km/h 62.1 km/h 68% 0 mm 0.00 W/m2
03:09 -12.1 °C -15.2 °C 34212.1 hPa WSW 31.1 km/h 49.2 km/h 68% 0 mm 0.00 W/m2
03:19 -11.8 °C -15.2 °C 34212.1 hPa West 25.9 km/h 64.7 km/h 66% 0 mm 0.00 W/m2
03:29 -11.9 °C -15.2 °C 34212.1 hPa SW 28.5 km/h 64.7 km/h 67% 0 mm 0.00 W/m2
03:30 -11.9 °C -15.2 °C 34212.1 hPa SW 33.6 km/h 64.7 km/h 67% 0 mm 0.00 W/m2
03:39 -11.9 °C -15.1 °C 34212.1 hPa WSW 15.6 km/h 51.8 km/h 68% 0 mm 0.00 W/m2
03:49 -12.1 °C -15.2 °C 34212.1 hPa SSW 25.9 km/h 51.8 km/h 68% 0 mm 0.00 W/m2
03:59 -12 °C -15.2 °C 34198.6 hPa SSW 18.2 km/h 51.8 km/h 68% 0 mm 0.00 W/m2
04:00 -12 °C -15.2 °C 34198.6 hPa SW 57 km/h 57 km/h 68% 0 mm 0.00 W/m2
04:09 -11.9 °C -15.1 °C 34198.6 hPa SW 36.2 km/h 59.5 km/h 68% 0 mm 0.00 W/m2
04:19 -12 °C -15.2 °C 34198.6 hPa SSW 15.6 km/h 59.5 km/h 68% 0 mm 0.00 W/m2
04:29 -12.1 °C -15.2 °C 34198.6 hPa SSW 44.1 km/h 59.5 km/h 69% 0 mm 0.00 W/m2
04:30 -12.1 °C -15 °C 34198.6 hPa SW 38.8 km/h 59.5 km/h 70% 0 mm 0.00 W/m2
04:39 -12.1 °C -14.9 °C 34198.6 hPa SSW 33.6 km/h 54.4 km/h 70% 0 mm 0.00 W/m2
04:49 -12.1 °C -14.9 °C 34198.6 hPa SW 33.6 km/h 54.4 km/h 70% 0 mm 0.00 W/m2
04:59 -12.1 °C -14.9 °C 34198.6 hPa SW 36.2 km/h 54.4 km/h 70% 0 mm 0.00 W/m2
05:00 -12.1 °C -14.9 °C 34198.6 hPa SW 31.1 km/h 54.4 km/h 70% 0 mm 0.00 W/m2
05:09 -12.1 °C -15.1 °C 34188.4 hPa SW 20.8 km/h 46.7 km/h 69% 0 mm 0.00 W/m2
05:19 -12.1 °C -15.1 °C 34198.6 hPa SSW 15.6 km/h 46.7 km/h 69% 0 mm 0.00 W/m2
05:29 -12.2 °C -15.1 °C 34188.4 hPa WSW 20.8 km/h 46.7 km/h 70% 0 mm 0.00 W/m2
05:30 -12.2 °C -15.1 °C 34188.4 hPa SW 25.9 km/h 46.7 km/h 70% 0 mm 0.00 W/m2
05:39 -12.1 °C -14.9 °C 34198.6 hPa SW 15.6 km/h 41.4 km/h 70% 0 mm 0.00 W/m2
05:49 -12 °C -15.1 °C 34198.6 hPa SW 44.1 km/h 51.8 km/h 69% 0 mm 0.00 W/m2
05:59 -12 °C -15.1 °C 34188.4 hPa SSW 20.8 km/h 62.1 km/h 69% 0 mm 0.00 W/m2
06:00 -12 °C -15.1 °C 34188.4 hPa SSW 36.2 km/h 62.1 km/h 69% 0 mm 0.00 W/m2
06:09 -12 °C -15.1 °C 34188.4 hPa SW 31.1 km/h 46.7 km/h 69% 0 mm 0.00 W/m2
06:19 -11.9 °C -15.1 °C 34198.6 hPa SW 25.9 km/h 59.5 km/h 68% 0 mm 0.00 W/m2
06:29 -11.9 °C -14.9 °C 34198.6 hPa SW 36.2 km/h 59.5 km/h 69% 0 mm 0.00 W/m2
06:30 -11.9 °C -14.9 °C 34198.6 hPa SW 28.5 km/h 59.5 km/h 69% 0 mm 0.00 W/m2
06:39 -11.9 °C -14.9 °C 34188.4 hPa SW 38.8 km/h 51.8 km/h 69% 0 mm 0.00 W/m2
06:49 -12 °C -15 °C 34188.4 hPa SW 28.5 km/h 51.8 km/h 69% 0 mm 0.00 W/m2
06:59 -11.9 °C -14.9 °C 34188.4 hPa WSW 23.3 km/h 51.8 km/h 69% 0 mm 0.00 W/m2
07:00 -11.9 °C -14.9 °C 34188.4 hPa SW 31.1 km/h 51.8 km/h 69% 0 mm 0.00 W/m2
07:09 -11.9 °C -14.9 °C 34188.4 hPa South 31.1 km/h 38.8 km/h 69% 0 mm 0.00 W/m2
07:19 -11.9 °C -14.9 °C 34188.4 hPa SW 36.2 km/h 46.7 km/h 69% 0 mm 0.00 W/m2
07:29 -11.9 °C -15.1 °C 34198.6 hPa SW 31.1 km/h 46.7 km/h 68% 0 mm 0.00 W/m2
07:30 -11.9 °C -15.1 °C 34198.6 hPa SSW 38.8 km/h 46.7 km/h 68% 0 mm 0.00 W/m2
07:39 -11.9 °C -15.1 °C 34198.6 hPa SSW 18.2 km/h 41.4 km/h 68% 0 mm 7.00 W/m2
07:49 -11.8 °C -15.1 °C 34198.6 hPa SSW 25.9 km/h 41.4 km/h 67% 0 mm 16.00 W/m2
07:59 -11.7 °C -15.1 °C 34198.6 hPa SSW 20.8 km/h 49.2 km/h 66% 0 mm 23.00 W/m2
08:00 -11.7 °C -15.1 °C 34198.6 hPa SW 28.5 km/h 49.2 km/h 66% 0 mm 23.00 W/m2
08:09 -11.7 °C -15.1 °C 34212.1 hPa SSW 7.7 km/h 28.5 km/h 66% 0 mm 32.00 W/m2
08:19 -11.8 °C -15.2 °C 34212.1 hPa SSW 15.6 km/h 28.5 km/h 66% 0 mm 47.00 W/m2
08:30 -11.8 °C -15.3 °C 34222.3 hPa SSW 10.3 km/h 28.5 km/h 65% 0 mm 56.00 W/m2
08:39 -11.8 °C -15.2 °C 34222.3 hPa South 7.7 km/h 12.9 km/h 66% 0 mm 58.00 W/m2
08:49 -12 °C -15.2 °C 34222.3 hPa Calm   12.9 km/h 67% 0 mm 60.00 W/m2
09:00 -12.1 °C -15.3 °C 34222.3 hPa SSE 10.3 km/h 18.2 km/h 67% 0 mm 58.00 W/m2
09:09 -12.2 °C -15.3 °C 34235.8 hPa SSE 10.3 km/h 12.9 km/h 68% 0 mm 67.00 W/m2
09:19 -12.2 °C -15.3 °C 34235.8 hPa South 7.7 km/h 20.8 km/h 68% 0 mm 49.00 W/m2
09:30 -12.1 °C -15.3 °C 34235.8 hPa SSE 12.9 km/h 23.3 km/h 67% 0 mm 65.00 W/m2
09:39 -11.7 °C -15.2 °C 34246 hPa SW 23.3 km/h 41.4 km/h 65% 0 mm 30.00 W/m2
09:49 -11.8 °C -14.9 °C 34256.2 hPa SW 31.1 km/h 41.4 km/h 68% 0 mm 21.00 W/m2
10:00 -12.2 °C -14.5 °C 34256.2 hPa WSW 18.2 km/h 59.5 km/h 75% 7.62 mm 19.00 W/m2
10:09 -12.3 °C -14.4 °C 34256.2 hPa SW 12.9 km/h 38.8 km/h 77% 12.7 mm 19.00 W/m2
10:19 -12.6 °C -14.5 °C 34256.2 hPa WSW 18.2 km/h 38.8 km/h 79% 20.32 mm 37.00 W/m2
10:30 -12.6 °C -14.3 °C 34256.2 hPa SSW 15.6 km/h 38.8 km/h 81% 20.32 mm 98.00 W/m2
10:39 -12.4 °C -14.2 °C 34256.2 hPa SSW 18.2 km/h 31.1 km/h 80% 20.32 mm 141.00 W/m2
10:49 -12.3 °C -14.1 °C 34256.2 hPa SSW 7.7 km/h 31.1 km/h 80% 20.32 mm 114.00 W/m2
11:00 -12.3 °C -14.1 °C 34256.2 hPa West 10.3 km/h 31.1 km/h 80% 20.32 mm 107.00 W/m2
11:09 -12.1 °C -14.1 °C 34256.2 hPa SSW 20.8 km/h 28.5 km/h 78% 12.7 mm 125.00 W/m2
11:20 -12.1 °C -14.2 °C 34256.2 hPa SSW 12.9 km/h 28.5 km/h 77% 12.7 mm 98.00 W/m2
11:30 -12.1 °C -14.3 °C 34256.2 hPa SSW 7.7 km/h 28.5 km/h 77% 12.7 mm 88.00 W/m2
11:40 -12.1 °C -14.2 °C 34246 hPa SSW 12.9 km/h 23.3 km/h 77% 0 mm 109.00 W/m2
11:50 -12.1 °C -14.2 °C 34246 hPa SW 7.7 km/h 23.3 km/h 77% 0 mm 135.00 W/m2
12:00 -12 °C -14.1 °C 34246 hPa SSW 12.9 km/h 23.3 km/h 77% 0 mm 190.00 W/m2
12:10 -11.9 °C -14.1 °C 34246 hPa South 7.7 km/h 15.6 km/h 77% 0 mm 149.00 W/m2
12:20 -11.9 °C -14.1 °C 34246 hPa South 5.1 km/h 15.6 km/h 77% 0 mm 141.00 W/m2
12:30 -11.9 °C -14.2 °C 34246 hPa SW 12.9 km/h 23.3 km/h 76% 0 mm 135.00 W/m2
12:40 -11.9 °C -14.2 °C 34235.8 hPa SSE 5.1 km/h 15.6 km/h 76% 0 mm 84.00 W/m2
MacerataMeteo
Maceratameteo.it Weather Underground - 2 mb